Time;durP1;ratioP1;P1;durP2;ratioP2;P2;SDS_P1;SDS_P2;PMS_P1;PMS_P2;Temp;Humidity;BMP_temperature;BMP_pressure;BME280_temperature;BME280_humidity;BME280_pressure;Samples;Min_cycle;Max_cycle;Signal;HPM_P1;HPM_P2
2023/07/11 00:02:14;;;;;;;;;;;22.50;59.90;;;;;;5074593;28;19912;-29
2023/07/11 00:04:39;;;;;;;;;;;22.50;60.00;;;;;;5074530;28;19935;-34
2023/07/11 00:07:05;;;;;;;;;;;22.50;60.10;;;;;;5072855;28;20388;-29
2023/07/11 00:09:30;;;;;;;;;;;22.40;60.00;;;;;;5074208;28;19919;-30
2023/07/11 00:11:56;;;;;;;;;;;22.40;60.20;;;;;;5073978;28;20003;-30
2023/07/11 00:14:21;;;;;;;;;;;22.40;60.20;;;;;;5074184;28;19923;-34
2023/07/11 00:16:47;;;;;;;;;;;22.30;60.30;;;;;;5074082;28;20429;-29
2023/07/11 00:19:13;;;;;;;;;;;22.30;60.30;;;;;;5074120;28;19913;-30
2023/07/11 00:21:38;;;;;;;;;;;22.30;60.40;;;;;;5073871;28;19917;-31
2023/07/11 00:24:05;;;;;;;;;;;22.30;60.50;;;;;;5073864;28;19966;-30
2023/07/11 00:26:31;;;;;;;;;;;22.30;60.60;;;;;;5073913;28;20360;-35
2023/07/11 00:28:59;;;;;;;;;;;22.30;60.70;;;;;;5073684;28;19912;-29
2023/07/11 00:31:24;;;;;;;;;;;22.20;60.70;;;;;;5073811;28;20007;-38
2023/07/11 00:33:50;;;;;;;;;;;22.20;60.80;;;;;;5073717;28;20606;-34
2023/07/11 00:36:15;;;;;;;;;;;22.20;60.80;;;;;;5073974;28;19974;-33
2023/07/11 00:38:41;;;;;;;;;;;22.20;60.80;;;;;;5073284;28;19912;-33
2023/07/11 00:41:07;;;;;;;;;;;22.10;60.80;;;;;;5073877;28;20011;-29
2023/07/11 00:43:32;;;;;;;;;;;22.10;60.90;;;;;;5073554;28;20433;-39
2023/07/11 00:46:04;;;;;;;;;;;22.10;60.80;;;;;;5073536;28;19912;-29
2023/07/11 00:48:33;;;;;;;;;;;22.20;60.90;;;;;;5073694;28;20376;-30
2023/07/11 00:50:59;;;;;;;;;;;22.10;60.90;;;;;;5073545;28;19912;-31
2023/07/11 00:53:25;;;;;;;;;;;22.10;60.90;;;;;;5073557;28;19916;-32
2023/07/11 00:55:51;;;;;;;;;;;22.10;61.00;;;;;;5072016;28;19919;-29
2023/07/11 00:58:17;;;;;;;;;;;22.10;61.10;;;;;;5073280;28;19912;-33
2023/07/11 01:00:43;;;;;;;;;;;22.10;61.10;;;;;;5073206;28;19919;-30
2023/07/11 01:03:08;;;;;;;;;;;22.10;61.80;;;;;;5073082;28;20340;-32
2023/07/11 01:05:34;;;;;;;;;;;22.00;61.20;;;;;;5073305;28;19919;-29
2023/07/11 01:07:59;;;;;;;;;;;22.00;61.20;;;;;;5071880;28;19917;-30
2023/07/11 01:10:25;;;;;;;;;;;22.10;61.30;;;;;;5073423;28;19958;-30
2023/07/11 01:12:57;;;;;;;;;;;22.00;61.30;;;;;;5073311;28;19964;-30
2023/07/11 01:15:23;;;;;;;;;;;22.00;61.40;;;;;;5072904;28;20371;-31
2023/07/11 01:17:48;;;;;;;;;;;22.00;61.50;;;;;;5073093;28;19962;-29
2023/07/11 01:20:13;;;;;;;;;;;21.90;61.50;;;;;;5073244;28;20280;-34
2023/07/11 01:22:39;;;;;;;;;;;21.90;61.60;;;;;;5072887;28;19958;-32
2023/07/11 01:25:08;;;;;;;;;;;21.90;61.70;;;;;;5072735;28;19913;-31
2023/07/11 01:27:34;;;;;;;;;;;21.90;61.80;;;;;;5072645;28;20011;-29
2023/07/11 01:30:03;;;;;;;;;;;21.90;61.80;;;;;;5072887;28;19982;-30
2023/07/11 01:32:29;;;;;;;;;;;21.80;61.80;;;;;;5072825;28;19978;-29
2023/07/11 01:34:54;;;;;;;;;;;21.80;61.90;;;;;;5072816;28;20395;-31
2023/07/11 01:37:20;;;;;;;;;;;21.80;62.00;;;;;;5072639;28;19935;-31
2023/07/11 01:39:46;;;;;;;;;;;21.80;62.10;;;;;;5072747;28;19912;-32
2023/07/11 01:42:12;;;;;;;;;;;21.70;62.10;;;;;;5072786;28;19912;-29
2023/07/11 01:44:37;;;;;;;;;;;21.70;62.20;;;;;;5072669;28;19913;-28
2023/07/11 01:47:03;;;;;;;;;;;21.70;62.30;;;;;;5072837;28;19912;-29
2023/07/11 01:49:29;;;;;;;;;;;21.70;62.40;;;;;;5072482;28;20398;-29
2023/07/11 01:52:04;;;;;;;;;;;21.70;62.40;;;;;;5071846;28;19923;-29
2023/07/11 01:54:29;;;;;;;;;;;21.70;62.50;;;;;;5072624;28;20439;-30
2023/07/11 01:56:55;;;;;;;;;;;21.70;62.60;;;;;;5072607;28;19912;-30
2023/07/11 01:59:20;;;;;;;;;;;21.60;62.50;;;;;;5071092;28;19917;-35
2023/07/11 02:01:46;;;;;;;;;;;21.60;62.50;;;;;;5072435;28;19913;-33
2023/07/11 02:04:11;;;;;;;;;;;21.60;62.60;;;;;;5072249;28;20007;-29
2023/07/11 02:06:37;;;;;;;;;;;21.60;62.60;;;;;;5072392;28;20435;-33
2023/07/11 02:09:02;;;;;;;;;;;21.50;62.60;;;;;;5072180;28;19912;-29
2023/07/11 02:11:28;;;;;;;;;;;21.50;62.70;;;;;;5072266;28;19913;-29
2023/07/11 02:13:53;;;;;;;;;;;21.50;62.80;;;;;;5072130;28;19916;-29
2023/07/11 02:16:19;;;;;;;;;;;21.50;62.80;;;;;;5072075;28;19919;-29
2023/07/11 02:18:44;;;;;;;;;;;21.40;62.90;;;;;;5072269;28;20283;-30
2023/07/11 02:21:10;;;;;;;;;;;21.40;63.00;;;;;;5070785;28;19913;-30
2023/07/11 02:23:35;;;;;;;;;;;21.30;63.00;;;;;;5072214;28;20343;-29
2023/07/11 02:26:01;;;;;;;;;;;21.30;63.10;;;;;;5072082;28;19916;-31
2023/07/11 02:28:26;;;;;;;;;;;21.30;63.30;;;;;;5072175;28;20003;-30
2023/07/11 02:30:51;;;;;;;;;;;21.20;63.40;;;;;;5072042;28;19916;-30
2023/07/11 02:33:17;;;;;;;;;;;21.20;63.50;;;;;;5071994;28;19920;-30
2023/07/11 02:35:42;;;;;;;;;;;21.20;63.50;;;;;;5072179;28;19940;-31
2023/07/11 02:38:08;;;;;;;;;;;21.10;63.50;;;;;;5071893;28;19981;-30
2023/07/11 02:40:33;;;;;;;;;;;21.20;63.70;;;;;;5071938;28;19967;-38
2023/07/11 02:42:59;;;;;;;;;;;21.10;63.70;;;;;;5071997;28;19913;-34
2023/07/11 02:45:24;;;;;;;;;;;21.10;63.80;;;;;;5070611;28;19938;-30
2023/07/11 02:47:50;;;;;;;;;;;21.00;63.80;;;;;;5071794;28;19912;-31
2023/07/11 02:50:15;;;;;;;;;;;21.00;63.90;;;;;;5071849;28;19917;-30
2023/07/11 02:52:41;;;;;;;;;;;21.00;63.90;;;;;;5072123;28;19923;-30
2023/07/11 02:55:07;;;;;;;;;;;21.00;64.00;;;;;;5072237;28;19940;-30
2023/07/11 02:57:32;;;;;;;;;;;21.00;64.00;;;;;;5072072;28;19946;-35
2023/07/11 02:59:58;;;;;;;;;;;21.00;64.00;;;;;;5071808;28;19912;-33
2023/07/11 03:02:23;;;;;;;;;;;21.00;64.00;;;;;;5073060;28;20007;-35
2023/07/11 03:04:49;;;;;;;;;;;21.00;64.00;;;;;;5075610;28;19923;-31
2023/07/11 03:07:14;;;;;;;;;;;20.90;64.00;;;;;;5075345;28;19912;-29
2023/07/11 03:09:40;;;;;;;;;;;20.90;64.70;;;;;;5075750;28;19913;-32
2023/07/11 03:12:06;;;;;;;;;;;20.90;64.10;;;;;;5075293;28;20375;-30
2023/07/11 03:14:32;;;;;;;;;;;20.90;64.20;;;;;;5075215;28;19933;-32
2023/07/11 03:16:57;;;;;;;;;;;20.90;64.20;;;;;;5075340;28;19913;-30
2023/07/11 03:19:23;;;;;;;;;;;20.90;64.30;;;;;;5075392;28;20383;-35
2023/07/11 03:21:48;;;;;;;;;;;20.90;64.30;;;;;;5075229;28;19912;-30
2023/07/11 03:24:14;;;;;;;;;;;20.90;64.30;;;;;;5075457;28;19920;-36
2023/07/11 03:26:39;;;;;;;;;;;20.90;64.40;;;;;;5075084;28;19920;-38
2023/07/11 03:29:05;;;;;;;;;;;20.80;64.40;;;;;;5074921;28;19918;-30
2023/07/11 03:31:30;;;;;;;;;;;20.80;64.40;;;;;;5075341;28;19916;-31
2023/07/11 03:33:56;;;;;;;;;;;20.80;64.40;;;;;;5073528;28;20264;-29
2023/07/11 03:36:22;;;;;;;;;;;20.80;64.50;;;;;;5073548;28;19962;-35
2023/07/11 03:38:48;;;;;;;;;;;20.80;64.50;;;;;;5073467;28;19913;-29
2023/07/11 03:41:13;;;;;;;;;;;20.80;64.50;;;;;;5074625;28;19912;-29
2023/07/11 03:43:38;;;;;;;;;;;20.80;64.50;;;;;;5074842;28;19912;-29
2023/07/11 03:46:04;;;;;;;;;;;20.80;64.50;;;;;;5074738;28;20443;-28
2023/07/11 03:48:30;;;;;;;;;;;20.80;64.50;;;;;;5074547;28;19957;-35
2023/07/11 03:50:55;;;;;;;;;;;20.80;64.50;;;;;;5074615;28;19912;-31
2023/07/11 03:53:21;;;;;;;;;;;20.80;64.50;;;;;;5074400;28;19923;-31
2023/07/11 03:55:46;;;;;;;;;;;20.80;64.50;;;;;;5074541;28;19913;-31
2023/07/11 03:58:12;;;;;;;;;;;20.80;64.50;;;;;;5074536;28;19931;-30
2023/07/11 04:00:37;;;;;;;;;;;20.80;64.50;;;;;;5074526;28;19995;-33
2023/07/11 04:03:03;;;;;;;;;;;20.80;64.50;;;;;;5072833;28;20005;-44
2023/07/11 04:05:29;;;;;;;;;;;20.80;64.50;;;;;;5074345;28;20451;-36
2023/07/11 04:07:54;;;;;;;;;;;20.80;64.50;;;;;;5074351;28;19935;-30
2023/07/11 04:10:20;;;;;;;;;;;20.80;64.50;;;;;;5074159;28;19912;-31
2023/07/11 04:12:45;;;;;;;;;;;20.80;64.50;;;;;;5074074;28;20005;-31
2023/07/11 04:15:12;;;;;;;;;;;20.80;64.60;;;;;;5073557;28;19912;-29
2023/07/11 04:17:38;;;;;;;;;;;20.80;64.50;;;;;;5073948;28;19940;-30
2023/07/11 04:20:04;;;;;;;;;;;20.80;64.50;;;;;;5074105;28;19912;-30
2023/07/11 04:22:29;;;;;;;;;;;20.80;64.50;;;;;;5073811;28;19947;-30
2023/07/11 04:24:55;;;;;;;;;;;20.80;64.50;;;;;;5073919;28;19960;-29
2023/07/11 04:27:20;;;;;;;;;;;20.80;64.50;;;;;;5072503;28;19913;-31
2023/07/11 04:29:46;;;;;;;;;;;20.80;64.50;;;;;;5073698;28;19916;-30
2023/07/11 04:32:11;;;;;;;;;;;20.80;64.50;;;;;;5073671;28;19994;-30
2023/07/11 04:34:37;;;;;;;;;;;20.80;64.50;;;;;;5073800;28;19961;-30
2023/07/11 04:37:02;;;;;;;;;;;20.90;64.50;;;;;;5073760;28;19921;-30
2023/07/11 04:39:28;;;;;;;;;;;20.90;64.50;;;;;;5073937;28;19956;-32
2023/07/11 04:41:53;;;;;;;;;;;20.90;64.40;;;;;;5073646;28;20284;-30
2023/07/11 04:44:19;;;;;;;;;;;20.90;64.40;;;;;;5073545;28;19913;-41
2023/07/11 04:46:44;;;;;;;;;;;20.90;64.40;;;;;;5073787;28;20378;-31
2023/07/11 04:49:10;;;;;;;;;;;20.80;64.40;;;;;;5073618;28;19918;-31
2023/07/11 04:51:35;;;;;;;;;;;20.80;64.30;;;;;;5073534;28;19917;-31
2023/07/11 04:54:00;;;;;;;;;;;20.80;64.40;;;;;;5073366;28;20007;-33
2023/07/11 04:56:26;;;;;;;;;;;20.80;64.40;;;;;;5073181;28;19923;-31
2023/07/11 04:58:51;;;;;;;;;;;20.90;64.40;;;;;;5073381;28;19973;-29
2023/07/11 05:01:17;;;;;;;;;;;20.90;64.40;;;;;;5073278;28;19913;-35
2023/07/11 05:03:46;;;;;;;;;;;20.90;64.40;;;;;;5073159;28;20323;-31
2023/07/11 05:06:12;;;;;;;;;;;20.90;64.30;;;;;;5073212;28;19995;-30
2023/07/11 05:08:40;;;;;;;;;;;20.90;64.40;;;;;;5073083;28;19917;-29
2023/07/11 05:11:11;;;;;;;;;;;20.90;64.40;;;;;;5073364;28;20410;-31
2023/07/11 05:13:36;;;;;;;;;;;21.00;64.40;;;;;;5073149;28;19920;-29
2023/07/11 05:16:05;;;;;;;;;;;21.00;64.30;;;;;;5073176;28;19919;-30
2023/07/11 05:18:31;;;;;;;;;;;21.00;64.30;;;;;;5072889;28;19966;-31
2023/07/11 05:20:57;;;;;;;;;;;21.00;64.30;;;;;;5073040;28;19913;-32
2023/07/11 05:23:24;;;;;;;;;;;21.10;64.30;;;;;;5072951;28;20241;-37
2023/07/11 05:25:49;;;;;;;;;;;21.10;64.20;;;;;;5071915;28;19916;-37
2023/07/11 05:28:16;;;;;;;;;;;21.10;64.30;;;;;;5071730;28;19912;-36
2023/07/11 05:30:41;;;;;;;;;;;21.10;64.20;;;;;;5071367;28;19916;-32
2023/07/11 05:33:07;;;;;;;;;;;21.20;64.20;;;;;;5072690;28;20265;-31
2023/07/11 05:35:36;;;;;;;;;;;21.10;64.20;;;;;;5072911;28;19920;-30
2023/07/11 05:38:01;;;;;;;;;;;21.20;64.20;;;;;;5071490;28;19919;-30
2023/07/11 05:40:27;;;;;;;;;;;21.20;64.20;;;;;;5072849;28;19912;-30
2023/07/11 05:42:52;;;;;;;;;;;21.20;64.10;;;;;;5071432;28;20433;-30
2023/07/11 05:45:18;;;;;;;;;;;21.20;64.10;;;;;;5072817;28;20005;-31
2023/07/11 05:47:43;;;;;;;;;;;21.30;64.20;;;;;;5072700;28;20363;-30
2023/07/11 05:50:09;;;;;;;;;;;21.30;64.10;;;;;;5072745;28;19920;-30
2023/07/11 05:52:34;;;;;;;;;;;21.40;64.10;;;;;;5072578;28;19966;-31
2023/07/11 05:55:00;;;;;;;;;;;21.40;64.10;;;;;;5072570;28;19918;-30
2023/07/11 05:57:25;;;;;;;;;;;21.50;64.10;;;;;;5072544;28;19917;-30
2023/07/11 05:59:51;;;;;;;;;;;21.50;64.00;;;;;;5072781;28;19982;-30
2023/07/11 06:02:16;;;;;;;;;;;21.50;64.00;;;;;;5072519;28;19913;-30
2023/07/11 06:04:42;;;;;;;;;;;21.60;64.00;;;;;;5072807;28;19947;-32
2023/07/11 06:07:08;;;;;;;;;;;21.60;63.90;;;;;;5072472;28;20349;-30
2023/07/11 06:09:33;;;;;;;;;;;21.60;63.80;;;;;;5072482;28;19958;-31
2023/07/11 06:11:59;;;;;;;;;;;21.70;63.80;;;;;;5072547;28;19920;-30
2023/07/11 06:14:24;;;;;;;;;;;21.70;63.70;;;;;;5072472;28;19912;-29
2023/07/11 06:16:50;;;;;;;;;;;21.80;63.60;;;;;;5072386;28;19913;-33
2023/07/11 06:19:15;;;;;;;;;;;21.80;63.60;;;;;;5072379;28;20333;-35
2023/07/11 06:21:41;;;;;;;;;;;21.90;63.60;;;;;;5072404;28;20372;-32
2023/07/11 06:24:07;;;;;;;;;;;21.90;63.50;;;;;;5072392;28;19952;-32
2023/07/11 06:26:33;;;;;;;;;;;22.00;63.50;;;;;;5072328;28;19993;-30
2023/07/11 06:28:58;;;;;;;;;;;22.00;63.40;;;;;;5072260;28;20380;-33
2023/07/11 06:31:24;;;;;;;;;;;22.00;63.30;;;;;;5072413;28;19916;-30
2023/07/11 06:33:50;;;;;;;;;;;22.10;63.30;;;;;;5070752;28;19968;-33
2023/07/11 06:36:16;;;;;;;;;;;22.10;63.20;;;;;;5072323;28;20069;-31
2023/07/11 06:38:41;;;;;;;;;;;22.20;63.10;;;;;;5075800;28;19908;-30
2023/07/11 06:41:07;;;;;;;;;;;22.20;63.10;;;;;;5076198;28;19997;-29
2023/07/11 06:43:32;;;;;;;;;;;22.30;63.00;;;;;;5074687;28;19908;-33
2023/07/11 06:45:59;;;;;;;;;;;22.30;63.00;;;;;;5076072;28;19958;-35
2023/07/11 06:48:26;;;;;;;;;;;22.40;63.00;;;;;;5076032;28;19915;-31
2023/07/11 06:50:52;;;;;;;;;;;22.50;62.90;;;;;;5076132;28;19909;-30
2023/07/11 06:53:18;;;;;;;;;;;22.60;62.70;;;;;;5075665;28;19952;-30
2023/07/11 06:55:48;;;;;;;;;;;22.70;62.50;;;;;;5075703;28;19955;-31
2023/07/11 06:58:14;;;;;;;;;;;22.80;62.40;;;;;;5075873;28;19955;-35
2023/07/11 07:00:40;;;;;;;;;;;22.80;62.20;;;;;;5075567;28;19913;-34
2023/07/11 07:03:07;;;;;;;;;;;22.90;62.00;;;;;;5075612;28;20287;-34
2023/07/11 07:05:33;;;;;;;;;;;23.00;62.00;;;;;;5075628;28;19909;-29
2023/07/11 07:07:58;;;;;;;;;;;23.10;61.90;;;;;;5075527;28;19908;-33
2023/07/11 07:10:23;;;;;;;;;;;23.10;61.80;;;;;;5074181;28;19956;-32
2023/07/11 07:12:49;;;;;;;;;;;23.20;61.70;;;;;;5075459;28;19920;-31
2023/07/11 07:15:14;;;;;;;;;;;23.20;61.50;;;;;;5075670;28;20587;-32
2023/07/11 07:17:40;;;;;;;;;;;23.20;61.40;;;;;;5075422;28;20005;-31
2023/07/11 07:20:06;;;;;;;;;;;23.40;61.40;;;;;;5075233;28;19935;-33
2023/07/11 07:22:31;;;;;;;;;;;23.50;61.30;;;;;;5075257;28;19915;-29
2023/07/11 07:24:57;;;;;;;;;;;23.50;61.20;;;;;;5075156;28;20003;-33
2023/07/11 07:27:22;;;;;;;;;;;23.60;61.10;;;;;;5075204;28;19916;-29
2023/07/11 07:29:48;;;;;;;;;;;23.60;61.00;;;;;;5075108;28;19947;-33
2023/07/11 07:32:13;;;;;;;;;;;23.60;60.90;;;;;;5073791;28;19923;-32
2023/07/11 07:34:39;;;;;;;;;;;23.70;60.80;;;;;;5075118;28;19908;-35
2023/07/11 07:37:04;;;;;;;;;;;23.70;60.70;;;;;;5074985;28;19909;-37
2023/07/11 07:39:30;;;;;;;;;;;23.80;60.70;;;;;;5074905;28;19913;-33
2023/07/11 07:41:55;;;;;;;;;;;23.90;60.70;;;;;;5074933;28;19913;-34
2023/07/11 07:44:21;;;;;;;;;;;23.90;60.60;;;;;;5074859;28;19908;-34
2023/07/11 07:46:46;;;;;;;;;;;24.00;60.60;;;;;;5074879;28;20307;-32
2023/07/11 07:49:12;;;;;;;;;;;24.00;60.40;;;;;;5073749;28;19924;-29
2023/07/11 07:51:37;;;;;;;;;;;24.10;60.30;;;;;;5074806;28;19948;-34
2023/07/11 07:54:03;;;;;;;;;;;24.10;60.20;;;;;;5073170;28;19919;-33
2023/07/11 07:56:30;;;;;;;;;;;24.10;60.10;;;;;;5073355;28;19963;-30
2023/07/11 07:58:55;;;;;;;;;;;24.10;60.00;;;;;;5074618;28;19908;-32
2023/07/11 08:01:21;;;;;;;;;;;24.20;59.90;;;;;;5074544;28;19946;-30
2023/07/11 08:03:47;;;;;;;;;;;24.30;59.80;;;;;;5074439;28;19955;-35
2023/07/11 08:06:13;;;;;;;;;;;24.40;59.70;;;;;;5074608;28;20567;-36
2023/07/11 08:08:39;;;;;;;;;;;24.40;59.50;;;;;;5074692;28;19916;-33
2023/07/11 08:11:06;;;;;;;;;;;24.50;59.50;;;;;;5074409;28;20371;-33
2023/07/11 08:13:31;;;;;;;;;;;24.60;59.40;;;;;;5074278;28;19913;-34
2023/07/11 08:15:58;;;;;;;;;;;24.70;59.30;;;;;;5074365;28;19927;-31
2023/07/11 08:18:24;;;;;;;;;;;24.70;59.10;;;;;;5074248;28;20028;-34
2023/07/11 08:20:49;;;;;;;;;;;24.80;58.90;;;;;;5074414;28;19940;-33
2023/07/11 08:23:15;;;;;;;;;;;24.80;58.80;;;;;;5074118;28;19958;-33
2023/07/11 08:25:41;;;;;;;;;;;24.90;58.70;;;;;;5074203;28;19908;-36
2023/07/11 08:28:06;;;;;;;;;;;25.00;58.60;;;;;;5074054;28;19912;-33
2023/07/11 08:30:35;;;;;;;;;;;25.00;58.40;;;;;;5072789;28;19916;-30
2023/07/11 08:33:01;;;;;;;;;;;25.10;58.20;;;;;;5074075;28;19917;-30
2023/07/11 08:35:27;;;;;;;;;;;25.10;58.10;;;;;;5074000;28;19958;-35
2023/07/11 08:37:52;;;;;;;;;;;25.20;57.50;;;;;;5074048;28;19908;-30
2023/07/11 08:40:21;;;;;;;;;;;25.20;57.40;;;;;;5073920;28;19909;-31
2023/07/11 08:42:46;;;;;;;;;;;25.30;57.40;;;;;;5073875;28;20301;-38
2023/07/11 08:45:15;;;;;;;;;;;25.40;57.20;;;;;;5073733;28;19908;-30
2023/07/11 08:47:43;;;;;;;;;;;25.40;57.20;;;;;;5073717;28;20378;-35
2023/07/11 08:50:14;;;;;;;;;;;25.50;57.10;;;;;;5073642;28;19915;-32
2023/07/11 08:52:40;;;;;;;;;;;25.60;56.70;;;;;;5073548;28;20007;-32
2023/07/11 08:55:13;;;;;;;;;;;25.60;55.90;;;;;;5073567;28;19939;-32
2023/07/11 08:57:42;;;;;;;;;;;25.70;56.00;;;;;;5072472;28;19908;-34
2023/07/11 09:00:14;;;;;;;;;;;25.70;55.60;;;;;;5073351;28;19908;-30
2023/07/11 09:02:45;;;;;;;;;;;25.70;55.70;;;;;;5072008;28;19909;-36
2023/07/11 09:05:31;;;;;;;;;;;25.80;55.90;;;;;;5073431;28;19909;-29
2023/07/11 09:07:58;;;;;;;;;;;25.90;55.60;;;;;;5072090;28;19912;-36
2023/07/11 09:10:31;;;;;;;;;;;26.00;55.50;;;;;;5073305;28;19998;-31
2023/07/11 09:13:09;;;;;;;;;;;26.00;55.50;;;;;;5071890;28;19916;-30
2023/07/11 09:15:57;;;;;;;;;;;26.10;55.30;;;;;;5073036;28;19909;-31
2023/07/11 09:18:33;;;;;;;;;;;26.10;55.20;;;;;;5072959;28;19915;-33
2023/07/11 09:21:08;;;;;;;;;;;26.20;55.30;;;;;;5072997;28;19908;-31
2023/07/11 09:23:39;;;;;;;;;;;26.30;54.70;;;;;;5072981;28;19909;-34
2023/07/11 09:26:08;;;;;;;;;;;26.30;54.90;;;;;;5072850;28;20378;-30
2023/07/11 09:28:35;;;;;;;;;;;26.40;54.80;;;;;;5072710;28;19919;-30
2023/07/11 09:31:01;;;;;;;;;;;26.40;54.70;;;;;;5071632;28;19963;-30
2023/07/11 09:33:35;;;;;;;;;;;26.40;54.70;;;;;;5071881;28;20284;-32
2023/07/11 09:36:02;;;;;;;;;;;26.40;54.70;;;;;;5071866;28;19916;-29
2023/07/11 09:38:36;;;;;;;;;;;26.40;54.80;;;;;;5071716;28;19998;-32
2023/07/11 09:41:17;;;;;;;;;;;26.40;54.70;;;;;;5070304;28;19947;-30
2023/07/11 09:43:43;;;;;;;;;;;26.40;54.60;;;;;;5071424;28;19915;-31
2023/07/11 09:46:12;;;;;;;;;;;26.40;54.60;;;;;;5071634;28;20009;-33
2023/07/11 09:48:38;;;;;;;;;;;26.40;54.70;;;;;;5071682;28;20035;-32
2023/07/11 09:51:10;;;;;;;;;;;26.50;54.50;;;;;;5071667;28;20495;-31
2023/07/11 09:53:35;;;;;;;;;;;26.50;54.40;;;;;;5072117;28;20012;-31
2023/07/11 09:56:09;;;;;;;;;;;26.60;54.30;;;;;;5072439;28;20318;-29
2023/07/11 09:58:34;;;;;;;;;;;26.60;54.50;;;;;;5072633;28;20268;-31
2023/07/11 10:01:01;;;;;;;;;;;26.70;54.10;;;;;;5072690;28;19995;-29
2023/07/11 10:03:27;;;;;;;;;;;26.70;54.20;;;;;;5071193;28;19935;-29
2023/07/11 10:05:53;;;;;;;;;;;26.70;54.10;;;;;;5071289;28;20371;-30
2023/07/11 10:08:20;;;;;;;;;;;26.80;54.10;;;;;;5072595;28;19952;-32
2023/07/11 10:10:50;;;;;;;;;;;26.70;54.00;;;;;;5072572;28;20368;-38
2023/07/11 10:13:16;;;;;;;;;;;26.80;54.00;;;;;;5075739;28;20379;-34
2023/07/11 10:15:42;;;;;;;;;;;26.90;54.10;;;;;;5076558;28;19923;-32
2023/07/11 10:18:18;;;;;;;;;;;27.00;54.00;;;;;;5076543;28;19951;-30
2023/07/11 10:20:45;;;;;;;;;;;27.00;53.90;;;;;;5076554;28;19909;-28
2023/07/11 10:23:11;;;;;;;;;;;27.10;53.90;;;;;;5075188;28;19934;-30
2023/07/11 10:25:37;;;;;;;;;;;27.10;53.90;;;;;;5075915;28;19991;-32
2023/07/11 10:28:04;;;;;;;;;;;27.10;53.80;;;;;;5076454;28;19978;-32
2023/07/11 10:30:34;;;;;;;;;;;27.20;53.60;;;;;;5076369;28;20340;-29
2023/07/11 10:33:03;;;;;;;;;;;27.20;53.10;;;;;;5076323;28;19924;-29
2023/07/11 10:35:29;;;;;;;;;;;27.30;54.00;;;;;;5076115;28;19909;-31
2023/07/11 10:38:04;;;;;;;;;;;27.40;53.30;;;;;;5074918;28;19914;-33
2023/07/11 10:40:41;;;;;;;;;;;27.50;53.30;;;;;;5076180;28;19915;-33
2023/07/11 10:43:13;;;;;;;;;;;27.60;53.10;;;;;;5074790;28;19909;-29
2023/07/11 10:45:40;;;;;;;;;;;27.60;53.10;;;;;;5076386;28;19916;-35
2023/07/11 10:48:06;;;;;;;;;;;27.60;53.10;;;;;;5076313;28;19912;-37
2023/07/11 10:50:44;;;;;;;;;;;27.60;53.00;;;;;;5075989;28;19915;-35
2023/07/11 10:53:13;;;;;;;;;;;27.70;52.80;;;;;;5075644;28;20272;-31
2023/07/11 10:55:44;;;;;;;;;;;27.70;52.70;;;;;;5075727;28;20001;-29
2023/07/11 10:58:09;;;;;;;;;;;27.80;52.80;;;;;;5075858;28;19958;-35
2023/07/11 11:00:36;;;;;;;;;;;27.80;52.80;;;;;;5075575;28;20268;-32
2023/07/11 11:03:08;;;;;;;;;;;27.80;52.70;;;;;;5075787;28;19909;-36
2023/07/11 11:05:39;;;;;;;;;;;27.80;52.40;;;;;;5075779;28;19908;-30
2023/07/11 11:08:10;;;;;;;;;;;27.80;52.40;;;;;;5075563;28;20360;-35
2023/07/11 11:11:01;;;;;;;;;;;27.80;52.30;;;;;;5074140;28;20368;-29
2023/07/11 11:13:32;;;;;;;;;;;27.80;52.20;;;;;;5075529;28;19912;-33
2023/07/11 11:16:02;;;;;;;;;;;27.90;52.00;;;;;;5075531;28;19920;-31
2023/07/11 11:18:37;;;;;;;;;;;27.90;52.10;;;;;;5075231;28;19909;-36
2023/07/11 11:21:06;;;;;;;;;;;28.00;51.90;;;;;;5073846;28;19909;-35
2023/07/11 11:23:43;;;;;;;;;;;28.00;52.00;;;;;;5075394;28;20249;-35
2023/07/11 11:26:11;;;;;;;;;;;28.10;52.00;;;;;;5075332;28;19915;-35
2023/07/11 11:28:55;;;;;;;;;;;28.20;51.80;;;;;;5075355;28;20002;-32
2023/07/11 11:31:25;;;;;;;;;;;28.30;51.80;;;;;;5075344;28;19938;-30
2023/07/11 11:33:57;;;;;;;;;;;28.40;51.90;;;;;;5074892;28;19917;-30
2023/07/11 11:36:30;;;;;;;;;;;28.40;51.00;;;;;;5074916;28;19912;-32
2023/07/11 11:38:58;;;;;;;;;;;28.50;51.20;;;;;;5075102;28;19914;-34
2023/07/11 11:41:47;;;;;;;;;;;28.60;51.20;;;;;;5073710;28;19908;-33
2023/07/11 11:44:26;;;;;;;;;;;28.60;51.30;;;;;;5074194;28;19909;-30
2023/07/11 11:46:52;;;;;;;;;;;28.70;51.00;;;;;;5074833;28;19935;-38
2023/07/11 11:49:18;;;;;;;;;;;28.60;51.10;;;;;;5073422;28;19912;-30
2023/07/11 11:51:44;;;;;;;;;;;28.60;51.20;;;;;;5074803;28;19908;-32
2023/07/11 11:54:20;;;;;;;;;;;28.60;51.30;;;;;;5074558;28;20348;-35
2023/07/11 11:56:47;;;;;;;;;;;28.70;51.30;;;;;;5074711;28;20376;-34
2023/07/11 11:59:20;;;;;;;;;;;28.70;51.20;;;;;;5074658;28;19908;-34
2023/07/11 12:01:56;;;;;;;;;;;28.70;51.20;;;;;;5074545;28;19908;-33
2023/07/11 12:04:32;;;;;;;;;;;28.70;51.20;;;;;;5074831;28;19914;-36
2023/07/11 12:07:01;;;;;;;;;;;28.70;51.10;;;;;;5074641;28;19909;-38
2023/07/11 12:09:32;;;;;;;;;;;28.70;51.10;;;;;;5074360;28;19912;-30
2023/07/11 12:12:11;;;;;;;;;;;28.80;51.20;;;;;;5074174;28;20321;-29
2023/07/11 12:14:43;;;;;;;;;;;28.80;51.20;;;;;;5074115;28;20272;-29
2023/07/11 12:17:26;;;;;;;;;;;28.80;51.00;;;;;;5074341;28;19958;-31
2023/07/11 12:19:56;;;;;;;;;;;28.80;51.00;;;;;;5074432;28;20279;-33
2023/07/11 12:22:22;;;;;;;;;;;28.90;51.10;;;;;;5074162;28;20260;-31
2023/07/11 12:24:59;;;;;;;;;;;28.80;50.70;;;;;;5072768;28;19908;-35
2023/07/11 12:27:24;;;;;;;;;;;28.90;50.90;;;;;;5074044;28;19908;-36
2023/07/11 12:29:50;;;;;;;;;;;28.90;50.90;;;;;;5073916;28;19921;-33
2023/07/11 12:32:29;;;;;;;;;;;29.00;51.00;;;;;;5073891;28;19920;-33
2023/07/11 12:34:55;;;;;;;;;;;29.00;50.60;;;;;;5073774;28;19915;-34
2023/07/11 12:37:23;;;;;;;;;;;29.10;50.40;;;;;;5073940;28;19909;-33
2023/07/11 12:39:54;;;;;;;;;;;29.20;50.50;;;;;;5073653;28;19963;-31
2023/07/11 12:42:23;;;;;;;;;;;29.20;50.50;;;;;;5073685;28;19909;-34
2023/07/11 12:44:48;;;;;;;;;;;29.20;50.60;;;;;;5073698;28;19909;-35
2023/07/11 12:47:15;;;;;;;;;;;29.20;50.40;;;;;;5073510;28;19974;-36
2023/07/11 12:49:43;;;;;;;;;;;29.20;50.60;;;;;;5073840;28;20360;-38
2023/07/11 12:52:14;;;;;;;;;;;29.30;50.50;;;;;;5073674;28;19908;-33
2023/07/11 12:54:41;;;;;;;;;;;29.40;50.40;;;;;;5073550;28;19947;-34
2023/07/11 12:57:11;;;;;;;;;;;29.60;50.40;;;;;;5073367;28;19927;-34
2023/07/11 12:59:37;;;;;;;;;;;29.70;50.20;;;;;;5071986;28;19916;-31
2023/07/11 13:02:04;;;;;;;;;;;29.90;50.10;;;;;;5073252;28;19958;-31
2023/07/11 13:04:37;;;;;;;;;;;30.00;50.00;;;;;;5073020;28;19916;-35
2023/07/11 13:07:14;;;;;;;;;;;30.20;49.80;;;;;;5073254;28;20217;-31
2023/07/11 13:09:42;;;;;;;;;;;30.30;49.70;;;;;;5073311;28;19999;-32
2023/07/11 13:12:10;;;;;;;;;;;30.40;49.50;;;;;;5073150;28;20264;-32
2023/07/11 13:14:35;;;;;;;;;;;30.50;49.10;;;;;;5073273;28;19991;-29
2023/07/11 13:17:01;;;;;;;;;;;30.50;49.10;;;;;;5073066;28;19939;-32
2023/07/11 13:19:27;;;;;;;;;;;30.50;49.20;;;;;;5073158;28;19909;-33
2023/07/11 13:21:52;;;;;;;;;;;30.50;49.00;;;;;;5072790;28;19908;-33
2023/07/11 13:24:25;;;;;;;;;;;30.50;49.10;;;;;;5072931;28;19954;-36
2023/07/11 13:26:50;;;;;;;;;;;30.60;49.00;;;;;;5072697;28;19908;-34
2023/07/11 13:29:17;;;;;;;;;;;30.80;48.80;;;;;;5072867;28;19912;-35
2023/07/11 13:31:43;;;;;;;;;;;30.90;48.50;;;;;;5072839;28;19916;-36
2023/07/11 13:34:18;;;;;;;;;;;30.90;48.60;;;;;;5072672;28;19920;-36
2023/07/11 13:36:45;;;;;;;;;;;30.90;48.60;;;;;;5073034;28;20478;-30
2023/07/11 13:39:14;;;;;;;;;;;30.90;48.50;;;;;;5072669;28;19909;-33
2023/07/11 13:41:40;;;;;;;;;;;31.00;48.50;;;;;;5072686;28;19909;-32
2023/07/11 13:44:15;;;;;;;;;;;30.90;48.60;;;;;;5072753;28;20364;-29
2023/07/11 13:46:41;;;;;;;;;;;30.90;48.40;;;;;;5071737;28;20333;-36
2023/07/11 13:49:17;;;;;;;;;;;30.80;48.50;;;;;;5072741;28;20003;-35
2023/07/11 13:51:42;;;;;;;;;;;30.80;48.70;;;;;;5072561;28;19950;-33
2023/07/11 13:54:13;;;;;;;;;;;30.70;49.40;;;;;;5072302;28;19916;-33
2023/07/11 13:56:38;;;;;;;;;;;30.60;48.90;;;;;;5072395;28;19987;-32
2023/07/11 13:59:04;;;;;;;;;;;30.60;49.00;;;;;;5072282;28;19955;-30
2023/07/11 14:01:32;;;;;;;;;;;30.50;49.10;;;;;;5072561;28;20314;-37
2023/07/11 14:03:57;;;;;;;;;;;30.50;49.10;;;;;;5072603;28;19942;-30
2023/07/11 14:06:23;;;;;;;;;;;30.50;49.10;;;;;;5072614;28;20003;-33
2023/07/11 14:08:48;;;;;;;;;;;30.50;49.20;;;;;;5072248;28;19944;-34
2023/07/11 14:11:14;;;;;;;;;;;30.50;49.10;;;;;;5072393;28;19909;-34
2023/07/11 14:13:40;;;;;;;;;;;30.60;48.90;;;;;;5072209;28;20351;-34
2023/07/11 14:16:07;;;;;;;;;;;30.50;49.00;;;;;;5072587;28;19954;-33
2023/07/11 14:18:32;;;;;;;;;;;30.50;49.20;;;;;;5072297;28;19947;-38